createdAt,value
2023-02-14T00:00:22.383Z,10.23
2023-02-14T00:02:49.381Z,10.70
2023-02-14T00:05:16.337Z,7.57
2023-02-14T00:07:43.017Z,10.77
2023-02-14T00:10:11.450Z,12.10
2023-02-14T00:12:38.143Z,12.00
2023-02-14T00:15:05.319Z,12.30
2023-02-14T00:17:31.988Z,10.67
2023-02-14T00:19:58.694Z,9.03
2023-02-14T00:22:25.592Z,12.23
2023-02-14T00:24:52.229Z,14.13
2023-02-14T00:27:20.192Z,12.07
2023-02-14T00:29:46.865Z,14.20
2023-02-14T00:32:13.609Z,15.20
2023-02-14T00:34:40.806Z,13.23
2023-02-14T00:37:07.452Z,12.63
2023-02-14T00:39:34.177Z,15.23
2023-02-14T00:42:00.901Z,17.67
2023-02-14T00:44:28.998Z,15.77
2023-02-14T00:46:55.668Z,14.97
2023-02-14T00:49:22.607Z,14.37
2023-02-14T00:51:49.334Z,16.17
2023-02-14T00:54:15.982Z,12.47
2023-02-14T00:56:42.628Z,11.17
2023-02-14T00:59:09.325Z,11.40
2023-02-14T01:01:37.349Z,11.50
2023-02-14T01:04:04.429Z,12.33
2023-02-14T01:06:31.183Z,12.53
2023-02-14T01:08:57.822Z,10.63
2023-02-14T01:11:25.432Z,11.97
2023-02-14T01:13:54.463Z,11.00
2023-02-14T01:16:23.855Z,11.77
2023-02-14T01:18:52.624Z,13.23
2023-02-14T01:21:22.224Z,13.00
2023-02-14T01:23:51.531Z,12.03
2023-02-14T01:26:19.387Z,10.23
2023-02-14T01:28:46.420Z,11.73
2023-02-14T01:31:15.972Z,8.27
2023-02-14T01:33:44.306Z,10.93
2023-02-14T01:36:20.833Z,12.07
2023-02-14T01:38:47.957Z,11.97
2023-02-14T01:41:14.707Z,11.13
2023-02-14T01:43:56.830Z,11.40
2023-02-14T01:46:24.622Z,12.17
2023-02-14T01:48:53.484Z,9.47
2023-02-14T01:51:22.437Z,9.40
2023-02-14T01:53:51.872Z,10.93
2023-02-14T01:56:24.679Z,12.33
2023-02-14T01:58:54.330Z,10.47
2023-02-14T02:01:21.340Z,11.07
2023-02-14T02:03:51.339Z,12.20
2023-02-14T02:06:25.874Z,12.37
2023-02-14T02:09:02.792Z,13.23
2023-02-14T02:11:29.501Z,10.73
2023-02-14T02:13:56.201Z,9.90
2023-02-14T02:16:37.513Z,8.23
2023-02-14T02:19:36.260Z,9.73
2023-02-14T02:22:38.038Z,10.63
2023-02-14T02:25:15.431Z,8.93
2023-02-14T02:27:58.980Z,10.07
2023-02-14T02:30:56.000Z,9.10
2023-02-14T02:33:53.526Z,10.43
2023-02-14T02:37:02.429Z,9.50
2023-02-14T02:39:41.275Z,10.13
2023-02-14T02:42:19.809Z,9.27
2023-02-14T02:44:57.363Z,9.50
2023-02-14T02:47:30.707Z,9.90
2023-02-14T02:50:05.768Z,9.40
2023-02-14T02:52:40.374Z,9.90
2023-02-14T02:55:22.782Z,11.07
2023-02-14T02:57:52.896Z,8.63
2023-02-14T03:00:22.242Z,9.47
2023-02-14T03:02:52.506Z,10.27
2023-02-14T03:05:19.437Z,10.70
2023-02-14T03:07:49.275Z,11.10
2023-02-14T03:10:18.417Z,8.40
2023-02-14T03:13:28.148Z,11.73
2023-02-14T03:16:27.936Z,11.63
2023-02-14T03:19:18.580Z,11.93
2023-02-14T03:21:53.297Z,10.43
2023-02-14T03:24:27.924Z,11.10
2023-02-14T03:27:01.706Z,11.67
2023-02-14T03:29:36.828Z,10.60
2023-02-14T03:32:11.236Z,12.17
2023-02-14T03:34:45.226Z,11.83
2023-02-14T03:37:17.315Z,12.23
2023-02-14T03:39:54.674Z,11.60
2023-02-14T03:42:25.828Z,10.50
2023-02-14T03:44:54.228Z,11.00
2023-02-14T03:47:24.767Z,10.87
2023-02-14T03:49:55.237Z,10.40
2023-02-14T03:52:24.681Z,11.00
2023-02-14T03:54:55.446Z,10.93
2023-02-14T03:57:25.626Z,12.17
2023-02-14T03:59:53.155Z,10.70
2023-02-14T04:02:25.094Z,9.53
2023-02-14T04:04:53.758Z,12.10
2023-02-14T04:07:23.392Z,10.93
2023-02-14T04:09:52.357Z,11.40
2023-02-14T04:12:32.293Z,11.13
2023-02-14T04:15:04.005Z,11.83
2023-02-14T04:17:30.697Z,10.97
2023-02-14T04:19:57.362Z,9.87
2023-02-14T04:22:24.099Z,12.27
2023-02-14T04:24:52.153Z,11.77
2023-02-14T04:27:18.845Z,10.70
2023-02-14T04:29:47.462Z,12.60
2023-02-14T04:32:17.012Z,11.60
2023-02-14T04:34:43.840Z,13.10
2023-02-14T04:37:10.854Z,13.97
2023-02-14T04:39:38.111Z,15.20
2023-02-14T04:42:06.438Z,14.30
2023-02-14T04:44:33.472Z,16.33
2023-02-14T04:47:00.430Z,19.80
2023-02-14T04:49:27.130Z,23.87
2023-02-14T04:51:53.825Z,19.83
2023-02-14T04:54:20.484Z,25.37
2023-02-14T04:56:47.148Z,20.50
2023-02-14T04:59:15.510Z,23.60
2023-02-14T05:01:42.243Z,20.60
2023-02-14T05:04:09.408Z,22.03
2023-02-14T05:06:36.416Z,17.00
2023-02-14T05:09:03.246Z,21.97
2023-02-14T05:11:30.784Z,22.57
2023-02-14T05:13:57.476Z,22.43
2023-02-14T05:16:25.821Z,15.90
2023-02-14T05:18:52.702Z,20.10
2023-02-14T05:21:19.362Z,17.97
2023-02-14T05:23:46.036Z,23.20
2023-02-14T05:26:12.701Z,20.80
2023-02-14T05:28:39.447Z,21.77
2023-02-14T05:31:06.148Z,16.00
2023-02-14T05:33:34.205Z,16.80
2023-02-14T05:36:00.893Z,20.03
2023-02-14T05:38:27.584Z,23.07
2023-02-14T05:40:54.233Z,20.03
2023-02-14T05:43:21.174Z,11.87
2023-02-14T05:45:48.216Z,16.33
2023-02-14T05:48:15.078Z,18.03
2023-02-14T05:50:43.088Z,17.87
2023-02-14T05:53:09.733Z,15.37
2023-02-14T05:55:36.636Z,15.07
2023-02-14T05:58:03.764Z,15.77
2023-02-14T06:00:30.532Z,13.83
2023-02-14T06:02:57.205Z,17.43
2023-02-14T06:05:23.911Z,17.97
2023-02-14T06:07:51.890Z,15.37
2023-02-14T06:10:19.285Z,11.53
2023-02-14T06:12:46.170Z,11.10
2023-02-14T06:15:12.840Z,13.23
2023-02-14T06:17:39.558Z,11.57
2023-02-14T06:20:07.876Z,9.17
2023-02-14T06:22:34.559Z,8.90
2023-02-14T06:25:02.588Z,9.17
2023-02-14T06:27:29.442Z,9.90
2023-02-14T06:29:56.174Z,9.77
2023-02-14T06:32:22.942Z,9.07
2023-02-14T06:34:49.627Z,9.10
2023-02-14T06:37:16.310Z,8.60
2023-02-14T06:39:42.981Z,9.33
2023-02-14T06:42:11.011Z,10.03
2023-02-14T06:44:37.712Z,9.87
2023-02-14T06:47:04.426Z,11.47
2023-02-14T06:49:31.182Z,13.27
2023-02-14T06:51:57.893Z,10.63
2023-02-14T06:54:24.575Z,11.87
2023-02-14T06:56:51.332Z,12.80
2023-02-14T06:59:19.453Z,7.73
2023-02-14T07:01:46.165Z,11.90
2023-02-14T07:04:12.971Z,9.80
2023-02-14T07:06:39.695Z,11.00
2023-02-14T07:09:06.851Z,10.67
2023-02-14T07:11:33.535Z,13.73
2023-02-14T07:14:00.194Z,11.90
2023-02-14T07:16:28.419Z,13.90
2023-02-14T07:18:55.195Z,9.97
2023-02-14T07:21:21.966Z,11.70
2023-02-14T07:23:48.705Z,8.50
2023-02-14T07:26:15.506Z,10.73
2023-02-14T07:28:44.850Z,9.03
2023-02-14T07:31:12.049Z,11.20
2023-02-14T07:33:40.187Z,14.37
2023-02-14T07:36:08.268Z,9.80
2023-02-14T07:38:35.307Z,10.30
2023-02-14T07:41:02.647Z,8.00
2023-02-14T07:43:29.644Z,10.80
2023-02-14T07:45:56.596Z,12.17
2023-02-14T07:48:23.356Z,13.50
2023-02-14T07:50:51.409Z,9.57
2023-02-14T07:53:18.166Z,12.40
2023-02-14T07:55:49.099Z,11.90
2023-02-14T07:58:15.789Z,9.70
2023-02-14T08:00:42.492Z,11.00
2023-02-14T08:03:09.276Z,9.30
2023-02-14T08:05:36.107Z,8.77
2023-02-14T08:08:04.373Z,10.93
2023-02-14T08:10:31.211Z,9.93
2023-02-14T08:12:57.935Z,8.67
2023-02-14T08:15:24.654Z,8.73
2023-02-14T08:17:51.371Z,8.53
2023-02-14T08:20:18.553Z,9.17
2023-02-14T08:22:45.353Z,10.77
2023-02-14T08:25:13.446Z,11.00
2023-02-14T08:27:40.189Z,11.00
2023-02-14T08:30:08.154Z,10.63
2023-02-14T08:32:34.928Z,11.10
2023-02-14T08:35:01.782Z,11.27
2023-02-14T08:37:28.556Z,10.70
2023-02-14T08:39:55.284Z,12.73
2023-02-14T08:42:23.372Z,9.90
2023-02-14T08:44:50.129Z,11.60
2023-02-14T08:47:16.810Z,12.70
2023-02-14T08:49:43.857Z,11.13
2023-02-14T08:52:10.610Z,12.10
2023-02-14T08:54:37.367Z,10.30
2023-02-14T08:57:04.094Z,11.90
2023-02-14T08:59:32.179Z,15.37
2023-02-14T09:01:58.867Z,14.60
2023-02-14T09:04:25.865Z,15.17
2023-02-14T09:06:52.623Z,15.53
2023-02-14T09:09:19.337Z,12.50
2023-02-14T09:11:46.052Z,15.87
2023-02-14T09:14:12.789Z,15.67
2023-02-14T09:16:40.846Z,15.20
2023-02-14T09:19:07.621Z,15.70
2023-02-14T09:21:34.419Z,16.67
2023-02-14T09:24:01.165Z,16.80
2023-02-14T09:26:27.840Z,16.07
2023-02-14T09:28:56.081Z,17.17
2023-02-14T09:31:24.674Z,14.40
2023-02-14T09:33:52.765Z,16.73
2023-02-14T09:36:19.628Z,13.70
2023-02-14T09:38:46.870Z,12.53
2023-02-14T09:41:56.195Z,16.27
2023-02-14T09:44:29.146Z,15.57
2023-02-14T09:47:01.163Z,15.73
2023-02-14T09:49:33.934Z,18.27
2023-02-14T09:52:03.959Z,19.13
2023-02-14T09:54:34.746Z,19.80
2023-02-14T09:57:06.280Z,17.90
2023-02-14T09:59:39.629Z,20.40
2023-02-14T10:02:21.517Z,18.87
2023-02-14T10:04:59.087Z,22.23
2023-02-14T10:07:33.818Z,19.03
2023-02-14T10:10:06.974Z,18.50
2023-02-14T10:12:37.471Z,19.37
2023-02-14T10:15:12.412Z,22.00
2023-02-14T10:17:42.186Z,15.60
2023-02-14T10:20:21.114Z,18.50
2023-02-14T10:22:54.959Z,18.73
2023-02-14T10:25:26.102Z,22.80
2023-02-14T10:27:55.737Z,20.90
2023-02-14T10:30:24.006Z,21.97
2023-02-14T10:32:59.176Z,20.23
2023-02-14T10:35:33.549Z,21.70
2023-02-14T10:38:09.629Z,21.40
2023-02-14T10:40:54.331Z,24.90
2023-02-14T10:43:30.313Z,23.73
2023-02-14T10:46:06.429Z,24.40
2023-02-14T10:48:51.625Z,16.43
2023-02-14T10:51:24.498Z,20.70
2023-02-14T10:54:07.047Z,20.80
2023-02-14T10:56:38.135Z,22.37
2023-02-14T10:59:17.194Z,23.80
2023-02-14T11:01:44.814Z,21.50
2023-02-14T11:04:12.368Z,20.50
2023-02-14T11:06:40.554Z,24.10
2023-02-14T11:09:07.291Z,17.40
2023-02-14T11:11:39.918Z,20.77
2023-02-14T11:16:49.387Z,22.07
2023-02-14T11:19:21.604Z,23.10
2023-02-14T11:21:51.395Z,21.07
2023-02-14T11:24:20.208Z,21.27
2023-02-14T11:26:49.684Z,20.03
2023-02-14T11:29:23.367Z,20.33
2023-02-14T11:31:50.606Z,18.47
2023-02-14T11:34:34.263Z,21.43
2023-02-14T11:37:02.888Z,20.10
2023-02-14T11:39:31.969Z,18.97
2023-02-14T11:42:01.423Z,16.57
2023-02-14T11:44:29.518Z,19.10
2023-02-14T11:47:15.965Z,19.00
2023-02-14T11:49:54.657Z,19.73
2023-02-14T11:52:23.050Z,21.30
2023-02-14T11:54:49.863Z,15.57
2023-02-14T11:57:23.232Z,16.67
2023-02-14T11:59:53.138Z,19.97
2023-02-14T12:02:26.739Z,19.23
2023-02-14T12:04:57.531Z,21.50
2023-02-14T12:07:29.725Z,19.90
2023-02-14T12:10:22.275Z,15.93
2023-02-14T12:12:54.951Z,16.87
2023-02-14T12:15:34.750Z,22.17
2023-02-14T12:18:31.843Z,21.13
2023-02-14T12:21:04.316Z,17.60
2023-02-14T12:23:40.836Z,21.33
2023-02-14T12:26:17.697Z,19.80
2023-02-14T12:28:49.836Z,18.30
2023-02-14T12:31:17.185Z,16.90
2023-02-14T12:33:46.529Z,19.37
2023-02-14T12:36:27.011Z,15.80
2023-02-14T12:39:03.661Z,17.50
2023-02-14T12:41:38.321Z,19.17
2023-02-14T12:44:13.250Z,19.63
2023-02-14T12:46:58.704Z,16.97
2023-02-14T12:50:03.014Z,17.00
2023-02-14T12:52:53.193Z,18.50
2023-02-14T12:55:41.276Z,21.00
2023-02-14T12:58:24.726Z,17.30
2023-02-14T13:01:04.346Z,19.17
2023-02-14T13:04:03.632Z,16.97
2023-02-14T13:06:34.250Z,16.43
2023-02-14T13:09:13.830Z,16.43
2023-02-14T13:11:52.776Z,19.77
2023-02-14T13:14:35.182Z,19.17
2023-02-14T13:17:07.360Z,18.57
2023-02-14T13:19:42.321Z,18.50
2023-02-14T13:22:15.571Z,20.97
2023-02-14T13:24:44.699Z,18.37
2023-02-14T13:27:18.209Z,16.97
2023-02-14T13:29:49.053Z,21.30
2023-02-14T13:32:19.860Z,19.93
2023-02-14T13:34:48.211Z,18.87
2023-02-14T13:37:18.324Z,21.10
2023-02-14T13:39:48.450Z,20.03
2023-02-14T13:42:50.749Z,19.97
2023-02-14T13:45:50.734Z,17.77
2023-02-14T13:48:19.764Z,15.77
2023-02-14T13:50:52.518Z,19.00
2023-02-14T13:53:43.385Z,17.63
2023-02-14T13:56:33.687Z,18.77
2023-02-14T13:59:04.368Z,18.53
2023-02-14T14:01:35.815Z,16.90
2023-02-14T14:04:05.104Z,18.03
2023-02-14T14:07:18.066Z,15.47
2023-02-14T14:09:59.898Z,15.93
2023-02-14T14:12:44.703Z,16.90
2023-02-14T14:15:17.529Z,18.10
2023-02-14T14:17:46.953Z,19.77
2023-02-14T14:20:40.819Z,20.23
2023-02-14T14:23:30.814Z,17.43
2023-02-14T14:25:58.275Z,15.80
2023-02-14T14:28:28.039Z,16.80
2023-02-14T14:30:55.151Z,17.97
2023-02-14T14:33:28.052Z,17.67
2023-02-14T14:35:56.150Z,18.17
2023-02-14T14:38:23.805Z,19.27
2023-02-14T14:40:52.797Z,18.27
2023-02-14T14:43:26.306Z,16.10
2023-02-14T14:45:53.891Z,19.97
2023-02-14T14:48:27.852Z,18.27
2023-02-14T14:50:54.624Z,17.17
2023-02-14T14:53:24.746Z,16.80
2023-02-14T14:55:53.132Z,17.47
2023-02-14T14:58:36.713Z,18.77
2023-02-14T15:01:04.637Z,16.00
2023-02-14T15:03:33.127Z,17.63
2023-02-14T15:06:06.889Z,15.50
2023-02-14T15:08:33.892Z,15.40
2023-02-14T15:11:06.439Z,16.30
2023-02-14T15:13:38.448Z,19.73
2023-02-14T15:16:05.570Z,17.97
2023-02-14T15:18:32.432Z,15.50
2023-02-14T15:21:00.033Z,17.20
2023-02-14T15:23:27.004Z,17.03
2023-02-14T15:25:53.749Z,19.63
2023-02-14T15:28:30.147Z,17.77
2023-02-14T15:30:59.811Z,21.27
2023-02-14T15:33:28.031Z,15.37
2023-02-14T15:35:56.196Z,14.90
2023-02-14T15:38:23.751Z,18.80
2023-02-14T15:40:51.601Z,18.40
2023-02-14T15:43:28.036Z,16.10
2023-02-14T15:46:00.024Z,16.83
2023-02-14T15:48:28.824Z,19.10
2023-02-14T15:50:57.516Z,15.87
2023-02-14T15:53:34.575Z,15.13
2023-02-14T15:56:07.951Z,19.93
2023-02-14T15:58:35.647Z,19.30
2023-02-14T16:01:04.368Z,16.70
2023-02-14T16:03:34.943Z,17.50
2023-02-14T16:06:02.174Z,16.20
2023-02-14T16:08:31.848Z,15.13
2023-02-14T16:11:01.255Z,15.07
2023-02-14T16:13:33.972Z,17.97
2023-02-14T16:16:03.799Z,17.33
2023-02-14T16:18:36.394Z,16.40
2023-02-14T16:21:11.880Z,16.70
2023-02-14T16:23:38.912Z,15.53
2023-02-14T16:26:06.344Z,20.80
2023-02-14T16:28:33.836Z,19.40
2023-02-14T16:31:03.781Z,18.70
2023-02-14T16:33:34.385Z,17.93
2023-02-14T16:36:06.811Z,15.20
2023-02-14T16:38:36.453Z,19.97
2023-02-14T16:41:03.148Z,18.80
2023-02-14T16:43:29.813Z,15.47
2023-02-14T16:45:56.552Z,15.90
2023-02-14T16:48:24.644Z,15.00
2023-02-14T16:50:51.296Z,13.73
2023-02-14T16:53:25.237Z,19.80
2023-02-14T16:55:54.066Z,17.53
2023-02-14T16:58:22.938Z,15.07
2023-02-14T17:00:49.719Z,16.60
2023-02-14T17:03:16.436Z,18.07
2023-02-14T17:05:44.728Z,13.93
2023-02-14T17:08:12.918Z,16.00
2023-02-14T17:10:40.794Z,14.07
2023-02-14T17:13:08.585Z,14.77
2023-02-14T17:15:35.483Z,13.67
2023-02-14T17:18:07.071Z,13.20
2023-02-14T17:20:33.760Z,14.07
2023-02-14T17:23:01.938Z,14.13
2023-02-14T17:25:29.050Z,13.53
2023-02-14T17:27:55.736Z,15.00
2023-02-14T17:30:23.013Z,14.10
2023-02-14T17:32:49.687Z,15.13
2023-02-14T17:35:17.058Z,14.03
2023-02-14T17:37:43.787Z,14.13
2023-02-14T17:40:12.870Z,13.30
2023-02-14T17:42:39.539Z,11.53
2023-02-14T17:45:07.052Z,13.67
2023-02-14T17:47:34.472Z,13.43
2023-02-14T17:50:01.127Z,15.63
2023-02-14T17:52:27.815Z,14.10
2023-02-14T17:54:54.509Z,14.53
2023-02-14T17:57:22.483Z,13.67
2023-02-14T17:59:49.686Z,12.83
2023-02-14T18:02:16.332Z,11.80
2023-02-14T18:04:43.003Z,12.80
2023-02-14T18:07:09.680Z,12.83
2023-02-14T18:09:36.529Z,12.37
2023-02-14T18:12:04.098Z,12.70
2023-02-14T18:14:32.441Z,15.87
2023-02-14T18:16:59.100Z,13.07
2023-02-14T18:19:25.746Z,15.63
2023-02-14T18:21:52.466Z,13.93
2023-02-14T18:24:19.449Z,13.20
2023-02-14T18:26:46.150Z,14.40
2023-02-14T18:29:13.105Z,15.23
2023-02-14T18:31:43.741Z,14.47
2023-02-14T18:34:10.592Z,14.90
2023-02-14T18:36:39.048Z,13.87
2023-02-14T18:39:06.963Z,15.93
2023-02-14T18:41:34.101Z,16.07
2023-02-14T18:44:01.108Z,15.83
2023-02-14T18:46:29.939Z,16.13
2023-02-14T18:48:58.599Z,17.13
2023-02-14T18:51:26.536Z,17.70
2023-02-14T18:53:53.849Z,13.90
2023-02-14T18:56:22.137Z,15.53
2023-02-14T18:58:50.967Z,15.87
2023-02-14T19:01:19.635Z,19.97
2023-02-14T19:03:46.788Z,15.93
2023-02-14T19:06:15.392Z,19.00
2023-02-14T19:08:42.371Z,17.90
2023-02-14T19:11:10.825Z,16.40
2023-02-14T19:13:37.723Z,16.53
2023-02-14T19:16:09.754Z,12.90
2023-02-14T19:18:36.475Z,16.90
2023-02-14T19:21:09.147Z,14.83
2023-02-14T19:23:37.202Z,16.60
2023-02-14T19:26:09.706Z,16.03
2023-02-14T19:28:36.406Z,13.60
2023-02-14T19:31:03.605Z,15.67
2023-02-14T19:33:30.620Z,15.83
2023-02-14T19:36:01.004Z,17.17
2023-02-14T19:38:27.899Z,13.20
2023-02-14T19:40:55.931Z,19.63
2023-02-14T19:43:22.656Z,17.60
2023-02-14T19:45:49.786Z,18.20
2023-02-14T19:48:16.702Z,17.40
2023-02-14T19:50:43.676Z,14.17
2023-02-14T19:53:10.455Z,18.30
2023-02-14T19:55:37.155Z,15.70
2023-02-14T19:58:05.205Z,13.37
2023-02-14T20:00:31.928Z,15.70
2023-02-14T20:03:00.553Z,16.33
2023-02-14T20:05:27.271Z,17.13
2023-02-14T20:07:54.045Z,15.47
2023-02-14T20:10:21.253Z,14.90
2023-02-14T20:12:47.904Z,17.53
2023-02-14T20:15:16.137Z,14.60
2023-02-14T20:17:42.832Z,14.23
2023-02-14T20:20:10.596Z,18.83
2023-02-14T20:22:37.275Z,15.00
2023-02-14T20:25:04.499Z,18.17
2023-02-14T20:27:31.135Z,17.90
2023-02-14T20:29:57.826Z,14.83
2023-02-14T20:32:25.812Z,17.17
2023-02-14T20:34:52.736Z,16.90
2023-02-14T20:37:19.400Z,18.13
2023-02-14T20:39:46.224Z,19.37
2023-02-14T20:42:12.926Z,13.40
2023-02-14T20:44:39.712Z,17.53
2023-02-14T20:47:06.413Z,17.67
2023-02-14T20:49:34.417Z,15.50
2023-02-14T20:52:01.465Z,12.67
2023-02-14T20:54:29.210Z,11.33
2023-02-14T20:56:56.308Z,16.37
2023-02-14T20:59:23.041Z,18.17
2023-02-14T21:01:49.736Z,17.83
2023-02-14T21:04:16.467Z,15.30
2023-02-14T21:06:44.519Z,15.97
2023-02-14T21:09:11.225Z,15.63
2023-02-14T21:11:37.962Z,20.00
2023-02-14T21:14:04.665Z,15.27
2023-02-14T21:16:31.392Z,15.27
2023-02-14T21:18:59.532Z,16.20
2023-02-14T21:21:28.652Z,17.60
2023-02-14T21:23:56.704Z,16.43
2023-02-14T21:26:23.425Z,16.13
2023-02-14T21:28:50.091Z,15.80
2023-02-14T21:31:18.360Z,13.37
2023-02-14T21:33:45.064Z,19.27
2023-02-14T21:36:13.020Z,19.50
2023-02-14T21:38:40.400Z,17.17
2023-02-14T21:41:10.655Z,14.57
2023-02-14T21:43:39.730Z,14.53
2023-02-14T21:46:07.915Z,16.13
2023-02-14T21:48:34.837Z,16.80
2023-02-14T21:51:06.331Z,17.07
2023-02-14T21:53:34.422Z,18.83
2023-02-14T21:56:05.565Z,19.37
2023-02-14T21:58:33.582Z,16.17
2023-02-14T22:01:00.697Z,18.37
2023-02-14T22:03:27.597Z,16.60
2023-02-14T22:06:01.061Z,19.40
2023-02-14T22:08:27.833Z,17.33
2023-02-14T22:10:54.530Z,18.03
2023-02-14T22:13:21.282Z,18.90
2023-02-14T22:15:49.301Z,16.37
2023-02-14T22:18:16.439Z,14.10
2023-02-14T22:20:43.473Z,17.83
2023-02-14T22:23:10.247Z,16.17
2023-02-14T22:25:36.921Z,20.33
2023-02-14T22:28:03.600Z,21.30
2023-02-14T22:30:30.253Z,17.27
2023-02-14T22:32:58.254Z,15.27
2023-02-14T22:35:24.988Z,13.83
2023-02-14T22:37:51.660Z,15.13
2023-02-14T22:40:18.525Z,15.27
2023-02-14T22:42:45.207Z,18.47
2023-02-14T22:45:11.887Z,16.40
2023-02-14T22:47:38.553Z,19.90
2023-02-14T22:50:07.697Z,19.90
2023-02-14T22:52:34.724Z,20.33
2023-02-14T22:55:01.361Z,16.37
2023-02-14T22:57:28.044Z,15.80
2023-02-14T22:59:54.682Z,17.40
2023-02-14T23:02:21.348Z,17.20
2023-02-14T23:04:48.011Z,20.27
2023-02-14T23:07:16.048Z,18.47
2023-02-14T23:09:42.689Z,21.80
2023-02-14T23:12:09.348Z,20.60
2023-02-14T23:14:36.041Z,18.43
2023-02-14T23:17:03.592Z,22.00
2023-02-14T23:19:32.001Z,19.00
2023-02-14T23:22:02.197Z,22.30
2023-02-14T23:24:30.196Z,18.97
2023-02-14T23:26:56.897Z,16.10
2023-02-14T23:29:23.704Z,18.50
2023-02-14T23:31:50.521Z,17.17
2023-02-14T23:34:17.503Z,17.77
2023-02-14T23:36:44.328Z,14.87
2023-02-14T23:39:11.321Z,14.87
2023-02-14T23:41:39.362Z,14.50
2023-02-14T23:44:06.120Z,16.87
2023-02-14T23:46:32.805Z,19.27
2023-02-14T23:48:59.520Z,15.83
2023-02-14T23:51:26.199Z,18.00
2023-02-14T23:53:53.407Z,22.30
2023-02-14T23:56:20.134Z,16.70
2023-02-14T23:58:48.137Z,19.00
